Etusivu
METAR-TAF:

METAR-TAF

Lentoasemat :

Tarton lentoasema

Tartto, Viro

Leveyspiiri: 58-18N, Pituuspiiri: 026-44E, korkeus merenpinnasta: 59 m

Tämänhetkinen sää

Tämä raportti tehtiin 32 minuuttia sitten, kello 22.50 UTC
Tuuli 5 kn idästä/koillisesta
Lämpötila 12°C
Kosteus 54%
Ilmanpaine 1028 hPa
Näkyvyys 10 km tai enemmän
ei pilviä alle 1500 m:ssä eikä cumulonimbus-pilviä

METAR: EETU 242250Z 06005KT CAVOK 12/03 Q1028

Aika: 02:22 (23:22 UTC)

Sääennuste

Tämä raportti tehtiin 27 tuntia ja 22 minuuttia sitten, kello 20.00 UTC
Ennuste voimassa 23. päivästä klo 21 UTC - 24. päivään klo 03 UTC
Tuuli 4 kn lännestä
Näkyvyys 10 km tai enemmän
Hajanaisia pilviä 4500 ft:n korkeudessa
Todennäköisyys 40% :
Ajoittain
23. päivästä klo 22 UTC - 24. päivään klo 03 UTC
Näkyvyys: 1200 m
Hajonneita pilviä 300 ft:n korkeudessa
utua, sumuhattaroita

TAF: EETU 232000Z 2321/2403 28004KT 9999 SCT045 PROB40 TEMPO 2322/2403 1200 BR BCFG BKN003

Säähavainnot ja -ennusteet yli 4000 lentoasemalta (METAR- ja TAF-raportit).

Käytössä olevat sääasemat on merkitty karttaan keltaisilla ja punaisilla pisteillä.

Aseta hiiri pisteen päälle nähdäksesi sääaseman nimen.

Klikkaa sitten nähdäksesi säähavainnot ja -ennusteet.

Kartan vaihtaminen: klikkaa mustalla rastilla varustettuja vihreitä pisteitä, niin voit zoomata sisään; viivalla varustettua vihreää pistettä, niin voit zoomata ulos tai vihreitä nuolia, niin pääset viereisille kartoille.


METAR-TAF: